Time;durP1;ratioP1;P1;durP2;ratioP2;P2;SDS_P1;SDS_P2;PMS_P1;PMS_P2;Temp;Humidity;BMP_temperature;BMP_pressure;BME280_temperature;BME280_humidity;BME280_pressure;Samples;Min_cycle;Max_cycle;Signal;HPM_P1;HPM_P2
2023/12/17 00:01:08;;;;;;;8.32;2.47;;;10.40;86.80;;;;;;5045309;28;20261;-75
2023/12/17 00:03:35;;;;;;;8.18;2.60;;;10.40;86.80;;;;;;5041626;28;20054;-75
2023/12/17 00:06:04;;;;;;;9.18;3.88;;;10.40;86.90;;;;;;5044727;28;20064;-75
2023/12/17 00:08:31;;;;;;;7.35;3.15;;;10.30;86.90;;;;;;5044119;28;20208;-76
2023/12/17 00:10:59;;;;;;;8.23;2.87;;;10.40;86.70;;;;;;5040821;28;20051;-76
2023/12/17 00:13:26;;;;;;;7.05;2.55;;;10.40;86.70;;;;;;5045866;28;20284;-75
2023/12/17 00:15:53;;;;;;;6.97;2.67;;;10.30;86.70;;;;;;5033405;28;20128;-75
2023/12/17 00:18:20;;;;;;;4.97;2.22;;;10.30;86.70;;;;;;5032097;28;20053;-75
2023/12/17 00:20:47;;;;;;;10.30;3.90;;;10.30;86.70;;;;;;5051329;28;20409;-75
2023/12/17 00:23:15;;;;;;;7.73;2.83;;;10.30;86.70;;;;;;5041356;28;20132;-76
2023/12/17 00:25:43;;;;;;;8.77;2.95;;;10.30;86.70;;;;;;5034268;28;20687;-75
2023/12/17 00:28:10;;;;;;;6.97;2.63;;;10.30;86.80;;;;;;5034234;28;20056;-75
2023/12/17 00:30:37;;;;;;;6.40;2.25;;;10.30;86.70;;;;;;5038573;28;20443;-75
2023/12/17 00:33:04;;;;;;;7.93;3.03;;;10.30;86.80;;;;;;5038745;28;20054;-75
2023/12/17 00:35:31;;;;;;;10.33;3.70;;;10.30;86.80;;;;;;5035606;28;20079;-75
2023/12/17 00:37:58;;;;;;;7.57;2.72;;;10.30;86.90;;;;;;5042084;28;21282;-75
2023/12/17 00:40:26;;;;;;;9.90;3.95;;;10.30;86.90;;;;;;5040905;28;20663;-75
2023/12/17 00:42:53;;;;;;;8.63;3.55;;;10.30;86.80;;;;;;5045900;28;20042;-75
2023/12/17 00:45:20;;;;;;;9.45;3.15;;;10.30;86.80;;;;;;5040125;28;20053;-76
2023/12/17 00:47:47;;;;;;;9.13;3.37;;;10.30;86.70;;;;;;5041739;28;20503;-75
2023/12/17 00:50:14;;;;;;;8.82;3.38;;;10.30;86.40;;;;;;5021146;28;20266;-75
2023/12/17 00:52:41;;;;;;;10.23;3.63;;;10.30;86.70;;;;;;5033401;28;20050;-75
2023/12/17 00:55:09;;;;;;;6.80;2.40;;;10.40;86.40;;;;;;5043357;28;20053;-75
2023/12/17 00:57:37;;;;;;;9.73;3.70;;;10.40;86.50;;;;;;5046152;28;20164;-75
2023/12/17 01:00:05;;;;;;;7.80;2.90;;;10.40;86.50;;;;;;5046610;28;20057;-75
2023/12/17 01:02:32;;;;;;;9.00;2.70;;;10.40;86.50;;;;;;5040380;28;20270;-75
2023/12/17 01:04:59;;;;;;;8.75;2.47;;;10.30;86.70;;;;;;5041954;28;20049;-75
2023/12/17 01:07:26;;;;;;;8.93;3.08;;;10.30;86.80;;;;;;5040975;28;20073;-76
2023/12/17 01:09:53;;;;;;;12.65;3.80;;;10.30;86.90;;;;;;5039145;28;20056;-75
2023/12/17 01:12:20;;;;;;;10.20;3.47;;;10.30;86.90;;;;;;5042708;28;20432;-76
2023/12/17 01:14:48;;;;;;;8.13;2.75;;;10.30;87.00;;;;;;5044416;28;20335;-75
2023/12/17 01:17:15;;;;;;;9.73;3.83;;;10.30;87.10;;;;;;5044294;28;20045;-75
2023/12/17 01:19:42;;;;;;;7.65;2.22;;;10.30;87.10;;;;;;5037327;28;20878;-75
2023/12/17 01:22:10;;;;;;;10.43;3.00;;;10.30;87.20;;;;;;5030023;28;20049;-75
2023/12/17 01:25:07;;;;;;;7.90;2.87;;;10.30;87.10;;;;;;5042114;28;20058;-76
2023/12/17 01:27:34;;;;;;;10.20;2.55;;;10.30;87.00;;;;;;5033340;28;21047;-75
2023/12/17 01:30:02;;;;;;;9.32;2.85;;;10.30;87.20;;;;;;5042484;28;20160;-75
2023/12/17 01:32:29;;;;;;;12.18;2.75;;;10.30;87.30;;;;;;5042288;28;20053;-75
2023/12/17 01:34:56;;;;;;;10.02;3.50;;;10.30;87.30;;;;;;5032424;28;20054;-76
2023/12/17 01:37:23;;;;;;;6.13;2.17;;;10.30;87.30;;;;;;5034826;28;20050;-75
2023/12/17 01:39:50;;;;;;;9.35;3.42;;;10.30;87.30;;;;;;5036153;28;20276;-75
2023/12/17 01:42:17;;;;;;;8.40;3.45;;;10.30;87.20;;;;;;5041900;28;20133;-75
2023/12/17 01:44:45;;;;;;;9.40;3.58;;;10.30;87.40;;;;;;5038730;28;20054;-76
2023/12/17 01:47:13;;;;;;;10.40;3.70;;;10.30;87.30;;;;;;5040048;28;20061;-75
2023/12/17 01:49:41;;;;;;;9.77;3.00;;;10.30;87.30;;;;;;5039630;28;20046;-75
2023/12/17 01:52:08;;;;;;;9.07;3.22;;;10.30;87.50;;;;;;5036658;28;20956;-75
2023/12/17 01:54:36;;;;;;;7.68;3.13;;;10.30;87.50;;;;;;5030758;28;20061;-76
2023/12/17 01:57:03;;;;;;;10.07;2.72;;;10.30;87.50;;;;;;5044105;28;20101;-75
2023/12/17 01:59:31;;;;;;;9.00;2.95;;;10.30;87.50;;;;;;5033383;28;20753;-76
2023/12/17 02:01:59;;;;;;;7.33;2.40;;;10.30;87.50;;;;;;5022663;28;20042;-75
2023/12/17 02:04:27;;;;;;;9.60;3.80;;;10.30;87.50;;;;;;5026217;28;20364;-75
2023/12/17 02:06:55;;;;;;;10.27;3.60;;;10.30;87.40;;;;;;5042567;28;20061;-75
2023/12/17 02:09:22;;;;;;;8.57;2.13;;;10.30;87.40;;;;;;5039439;28;20056;-75
2023/12/17 02:11:49;;;;;;;10.55;3.53;;;10.30;87.40;;;;;;5042621;28;20050;-75
2023/12/17 02:14:16;;;;;;;9.23;3.60;;;10.30;87.20;;;;;;5029429;28;20079;-76
2023/12/17 02:16:43;;;;;;;8.63;3.00;;;10.30;87.30;;;;;;5042885;28;20284;-75
2023/12/17 02:19:10;;;;;;;13.88;4.10;;;10.30;87.30;;;;;;5039834;28;20058;-75
2023/12/17 02:21:38;;;;;;;9.40;3.78;;;10.30;87.30;;;;;;5037679;28;20046;-75
2023/12/17 02:24:07;;;;;;;10.52;3.65;;;10.30;87.20;;;;;;5037546;28;20049;-76
2023/12/17 02:26:34;;;;;;;11.57;4.10;;;10.30;87.30;;;;;;5044976;28;20053;-75
2023/12/17 02:29:01;;;;;;;10.27;3.78;;;10.30;87.50;;;;;;5044341;28;20252;-75
2023/12/17 02:31:28;;;;;;;7.05;3.53;;;10.30;87.50;;;;;;5043308;28;20046;-75
2023/12/17 02:33:55;;;;;;;12.43;4.45;;;10.30;87.30;;;;;;5045617;28;20157;-75
2023/12/17 02:36:22;;;;;;;9.35;4.30;;;10.30;87.30;;;;;;5025270;28;20053;-75
2023/12/17 02:38:49;;;;;;;9.33;2.67;;;10.30;87.20;;;;;;5041054;28;20063;-76
2023/12/17 02:41:21;;;;;;;9.90;4.03;;;10.30;87.20;;;;;;5042689;28;20284;-75
2023/12/17 02:43:48;;;;;;;10.93;4.40;;;10.30;87.20;;;;;;5045472;28;20060;-75
2023/12/17 02:46:15;;;;;;;12.02;4.45;;;10.30;87.30;;;;;;5039915;28;20052;-76
2023/12/17 02:48:42;;;;;;;11.57;4.53;;;10.30;87.20;;;;;;5035344;28;20053;-76
2023/12/17 02:51:09;;;;;;;10.43;4.53;;;10.30;87.20;;;;;;5038675;28;20052;-76
2023/12/17 02:53:36;;;;;;;11.48;4.43;;;10.30;87.20;;;;;;5040006;28;20292;-75
2023/12/17 02:56:04;;;;;;;10.38;4.07;;;10.30;87.10;;;;;;5045773;28;20179;-76
2023/12/17 02:58:32;;;;;;;8.77;3.35;;;10.30;87.20;;;;;;5040320;28;20046;-75
2023/12/17 03:00:59;;;;;;;11.02;5.30;;;10.40;87.10;;;;;;5022230;28;20389;-75
2023/12/17 03:03:26;;;;;;;11.00;3.80;;;10.40;87.10;;;;;;5040098;28;20888;-75
2023/12/17 03:05:53;;;;;;;8.52;3.72;;;10.40;86.90;;;;;;5044695;28;20866;-76
2023/12/17 03:08:20;;;;;;;11.07;3.28;;;10.40;87.00;;;;;;5043095;28;20427;-75
2023/12/17 03:10:47;;;;;;;11.32;4.15;;;10.40;87.00;;;;;;5042923;28;20058;-75
2023/12/17 03:13:14;;;;;;;13.40;4.78;;;10.40;86.90;;;;;;5038315;28;20053;-76
2023/12/17 03:15:43;;;;;;;8.87;2.63;;;10.30;87.00;;;;;;5043353;28;20586;-76
2023/12/17 03:18:11;;;;;;;8.52;3.00;;;10.30;86.80;;;;;;5042878;28;20281;-75
2023/12/17 03:20:38;;;;;;;8.05;4.07;;;10.30;86.80;;;;;;5034517;28;20053;-75
2023/12/17 03:23:06;;;;;;;8.57;3.80;;;10.30;86.90;;;;;;5038558;28;20061;-75
2023/12/17 03:25:33;;;;;;;7.85;3.50;;;10.30;86.80;;;;;;5037144;28;20053;-75
2023/12/17 03:28:00;;;;;;;9.67;4.60;;;10.30;86.80;;;;;;5042852;28;20164;-76
2023/12/17 03:30:27;;;;;;;12.70;4.85;;;10.30;86.90;;;;;;5041356;28;20726;-75
2023/12/17 03:32:55;;;;;;;10.45;3.90;;;10.30;86.80;;;;;;5042930;28;20054;-75
2023/12/17 03:35:22;;;;;;;8.15;2.50;;;10.30;86.80;;;;;;5040242;28;20053;-76
2023/12/17 03:37:49;;;;;;;9.45;4.00;;;10.30;86.90;;;;;;5043879;28;20053;-75
2023/12/17 03:40:16;;;;;;;7.73;3.20;;;10.30;86.80;;;;;;5047943;28;20057;-76
2023/12/17 03:42:43;;;;;;;9.63;3.80;;;10.30;86.80;;;;;;5040486;28;20729;-76
2023/12/17 03:45:11;;;;;;;10.63;4.05;;;10.30;86.80;;;;;;5043737;28;20064;-75
2023/12/17 03:47:44;;;;;;;11.48;3.90;;;10.30;86.90;;;;;;5042316;28;20045;-76
2023/12/17 03:50:14;;;;;;;9.02;3.63;;;10.20;87.10;;;;;;5038135;28;20982;-75
2023/12/17 03:52:41;;;;;;;10.77;4.10;;;10.20;87.20;;;;;;5041860;28;20057;-75
2023/12/17 03:55:08;;;;;;;10.43;4.60;;;10.30;87.00;;;;;;5033594;28;20272;-75
2023/12/17 03:57:35;;;;;;;9.80;3.90;;;10.30;87.00;;;;;;5059605;28;20050;-75
2023/12/17 04:00:03;;;;;;;9.98;4.50;;;10.30;87.00;;;;;;5044169;28;20881;-76
2023/12/17 04:02:32;;;;;;;10.35;3.30;;;10.30;87.00;;;;;;5040879;28;20515;-76
2023/12/17 04:04:59;;;;;;;7.97;4.00;;;10.30;86.90;;;;;;5041168;28;20053;-75
2023/12/17 04:07:30;;;;;;;7.88;3.13;;;10.30;86.70;;;;;;5045755;28;20280;-76
2023/12/17 04:09:57;;;;;;;14.00;5.00;;;10.30;86.70;;;;;;5044814;28;20101;-75
2023/12/17 04:12:24;;;;;;;10.93;4.28;;;10.30;86.60;;;;;;5039486;28;20060;-76
2023/12/17 04:14:51;;;;;;;11.38;4.90;;;10.20;86.70;;;;;;5036671;28;20097;-76
2023/12/17 04:17:18;;;;;;;8.17;3.00;;;10.20;86.80;;;;;;5032710;28;20053;-75
2023/12/17 04:19:45;;;;;;;10.18;4.57;;;10.20;86.80;;;;;;5038697;28;20250;-75
2023/12/17 04:22:13;;;;;;;9.65;3.40;;;10.20;86.50;;;;;;5036775;28;20163;-75
2023/12/17 04:24:41;;;;;;;10.73;4.85;;;10.20;86.50;;;;;;5037603;28;20054;-76
2023/12/17 04:27:08;;;;;;;11.15;3.88;;;10.20;86.60;;;;;;5036953;28;20053;-75
2023/12/17 04:29:35;;;;;;;9.43;4.17;;;10.30;86.40;;;;;;5045111;28;20427;-76
2023/12/17 04:32:02;;;;;;;11.68;5.03;;;10.20;86.40;;;;;;5034322;28;20323;-76
2023/12/17 04:34:29;;;;;;;14.32;4.50;;;10.20;86.30;;;;;;5042425;28;20057;-76
2023/12/17 04:36:59;;;;;;;11.75;4.93;;;10.20;86.10;;;;;;5042711;28;20049;-76
2023/12/17 04:39:26;;;;;;;6.10;2.55;;;10.20;86.10;;;;;;5046969;28;20049;-76
2023/12/17 04:41:54;;;;;;;8.60;3.60;;;10.20;85.90;;;;;;5044551;28;20385;-76
2023/12/17 04:44:21;;;;;;;7.82;3.67;;;10.30;85.50;;;;;;5053808;28;20746;-76
2023/12/17 04:46:48;;;;;;;9.13;4.30;;;10.30;85.20;;;;;;5040701;28;20045;-76
2023/12/17 04:49:15;;;;;;;12.98;4.15;;;10.20;85.30;;;;;;5021172;28;20048;-76
2023/12/17 04:51:42;;;;;;;9.60;4.47;;;10.20;85.30;;;;;;5036679;28;20054;-75
2023/12/17 04:54:09;;;;;;;10.70;4.67;;;10.20;85.30;;;;;;5039036;28;20061;-76
2023/12/17 04:56:36;;;;;;;9.48;3.58;;;10.20;85.20;;;;;;5042833;28;20249;-76
2023/12/17 04:59:04;;;;;;;10.02;4.22;;;10.20;84.90;;;;;;5038918;28;20069;-75
2023/12/17 05:01:31;;;;;;;10.52;4.07;;;10.30;84.60;;;;;;5031125;28;20049;-76
2023/12/17 05:03:59;;;;;;;8.15;3.33;;;10.20;84.70;;;;;;5035802;28;20132;-75
2023/12/17 05:06:26;;;;;;;10.03;3.83;;;10.20;84.80;;;;;;5041197;28;20059;-76
2023/12/17 05:08:52;;;;;;;11.32;4.03;;;10.20;84.90;;;;;;5045561;28;20280;-76
2023/12/17 05:11:19;;;;;;;9.30;4.30;;;10.20;85.10;;;;;;5033195;28;20045;-75
2023/12/17 05:13:46;;;;;;;10.40;3.80;;;10.20;85.00;;;;;;5032801;28;20290;-75
2023/12/17 05:16:14;;;;;;;11.52;4.28;;;10.10;85.20;;;;;;5041325;28;20517;-75
2023/12/17 05:18:41;;;;;;;9.33;4.10;;;10.20;84.90;;;;;;5042040;28;20053;-76
2023/12/17 05:21:09;;;;;;;9.90;3.90;;;10.20;84.90;;;;;;5028096;28;20273;-76
2023/12/17 05:23:36;;;;;;;10.60;4.07;;;10.20;84.90;;;;;;5033433;28;20050;-76
2023/12/17 05:26:03;;;;;;;10.88;4.88;;;10.20;85.00;;;;;;5042107;28;20050;-75
2023/12/17 05:28:29;;;;;;;10.90;5.40;;;10.20;84.80;;;;;;5041552;28;20321;-76
2023/12/17 05:30:56;;;;;;;7.50;3.60;;;10.20;84.80;;;;;;5036565;28;21821;-76
2023/12/17 05:33:25;;;;;;;8.77;3.53;;;10.20;84.60;;;;;;5035672;28;20296;-76
2023/12/17 05:35:51;;;;;;;9.43;3.88;;;10.20;84.60;;;;;;5042274;28;20576;-76
2023/12/17 05:38:19;;;;;;;6.28;2.50;;;10.20;84.50;;;;;;5045343;28;20054;-76
2023/12/17 05:40:46;;;;;;;9.70;4.50;;;10.10;84.60;;;;;;5035346;28;20046;-76
2023/12/17 05:43:13;;;;;;;9.50;4.37;;;10.10;84.50;;;;;;5045079;28;20056;-76
2023/12/17 05:45:40;;;;;;;8.70;4.70;;;10.10;84.40;;;;;;5036411;28;20667;-76
2023/12/17 05:48:08;;;;;;;12.10;4.28;;;10.10;84.60;;;;;;5044118;28;20064;-76
2023/12/17 05:50:36;;;;;;;10.88;4.43;;;10.10;84.70;;;;;;5041390;28;20056;-75
2023/12/17 05:53:03;;;;;;;11.15;4.82;;;10.10;84.50;;;;;;5033578;28;20645;-76
2023/12/17 05:55:30;;;;;;;8.50;4.17;;;10.10;84.30;;;;;;5057384;28;20057;-76
2023/12/17 05:57:57;;;;;;;9.32;4.00;;;10.10;84.20;;;;;;5043750;28;20873;-75
2023/12/17 06:00:24;;;;;;;8.07;3.75;;;10.10;84.10;;;;;;5047872;28;20402;-76
2023/12/17 06:02:51;;;;;;;9.35;3.90;;;10.10;83.90;;;;;;5046897;28;20058;-75
2023/12/17 06:05:18;;;;;;;7.97;3.17;;;10.10;83.80;;;;;;5033126;28;20073;-76
2023/12/17 06:07:47;;;;;;;8.67;3.60;;;10.10;83.50;;;;;;5047304;28;20056;-76
2023/12/17 06:10:14;;;;;;;9.80;3.70;;;10.10;83.60;;;;;;5048349;28;20367;-76
2023/12/17 06:12:41;;;;;;;6.32;2.95;;;10.00;83.50;;;;;;5044562;28;20056;-76
2023/12/17 06:15:08;;;;;;;10.95;4.40;;;10.00;83.70;;;;;;5043780;28;20143;-75
2023/12/17 06:17:35;;;;;;;7.90;3.50;;;10.00;83.50;;;;;;5044442;28;20054;-76
2023/12/17 06:20:03;;;;;;;8.70;3.40;;;10.00;83.30;;;;;;5039663;28;20054;-76
2023/12/17 06:22:30;;;;;;;8.90;3.38;;;10.00;83.60;;;;;;5045341;28;20255;-75
2023/12/17 06:24:58;;;;;;;7.43;3.10;;;10.00;83.80;;;;;;5047478;28;20049;-76
2023/12/17 06:27:25;;;;;;;7.20;2.97;;;10.00;83.80;;;;;;5044615;28;20525;-76
2023/12/17 06:29:54;;;;;;;8.00;3.15;;;10.00;83.90;;;;;;5020457;28;20052;-76
2023/12/17 06:32:20;;;;;;;7.47;3.10;;;10.00;84.00;;;;;;5043972;28;20108;-76
2023/12/17 06:34:47;;;;;;;8.88;3.50;;;10.00;84.00;;;;;;5041757;28;20273;-76
2023/12/17 06:37:14;;;;;;;11.05;3.13;;;10.00;84.10;;;;;;5043236;28;20054;-76
2023/12/17 06:39:42;;;;;;;9.73;3.13;;;10.00;84.00;;;;;;5041150;28;20139;-76
2023/12/17 06:42:14;;;;;;;8.52;3.35;;;10.00;84.10;;;;;;5039247;28;20132;-76
2023/12/17 06:44:41;;;;;;;9.23;3.97;;;10.00;84.10;;;;;;5043411;28;20100;-76
2023/12/17 06:47:08;;;;;;;7.95;3.60;;;10.00;84.00;;;;;;5044254;28;20336;-76
2023/12/17 06:49:37;;;;;;;10.27;4.78;;;10.00;84.10;;;;;;5044162;28;20045;-76
2023/12/17 06:52:04;;;;;;;10.90;4.40;;;10.00;84.10;;;;;;5046375;28;20056;-76
2023/12/17 06:54:31;;;;;;;8.73;3.65;;;10.00;83.90;;;;;;5043793;28;20057;-76
2023/12/17 06:56:58;;;;;;;8.27;3.80;;;10.00;83.80;;;;;;5043522;28;20052;-76
2023/12/17 06:59:27;;;;;;;8.98;3.60;;;10.00;83.90;;;;;;5023574;28;20364;-76
2023/12/17 07:01:54;;;;;;;8.20;4.15;;;10.00;84.00;;;;;;5039383;28;20057;-76
2023/12/17 07:04:21;;;;;;;9.52;3.95;;;9.90;84.00;;;;;;5045124;28;20544;-76
2023/12/17 07:06:51;;;;;;;12.35;4.90;;;9.90;84.00;;;;;;5046192;28;20057;-76
2023/12/17 07:09:18;;;;;;;7.40;3.00;;;10.00;83.80;;;;;;5044484;28;20075;-75
2023/12/17 07:11:45;;;;;;;9.90;4.18;;;10.00;83.70;;;;;;5044075;28;20673;-76
2023/12/17 07:14:11;;;;;;;9.90;4.70;;;10.00;83.70;;;;;;5043295;28;20548;-75
2023/12/17 07:16:40;;;;;;;11.55;4.93;;;9.90;83.80;;;;;;5044888;28;20907;-75
2023/12/17 07:19:07;;;;;;;12.30;4.50;;;9.90;83.80;;;;;;5040287;28;20056;-75
2023/12/17 07:21:34;;;;;;;10.30;4.40;;;9.90;83.70;;;;;;5044213;28;20559;-76
2023/12/17 07:24:01;;;;;;;10.70;4.45;;;9.90;83.80;;;;;;5043897;28;20260;-76
2023/12/17 07:26:28;;;;;;;11.55;4.80;;;9.80;83.90;;;;;;5028287;28;20050;-76
2023/12/17 07:28:54;;;;;;;12.05;5.60;;;9.80;84.00;;;;;;5043856;28;20059;-76
2023/12/17 07:31:21;;;;;;;12.32;5.82;;;9.90;84.10;;;;;;5045936;28;20053;-76
2023/12/17 07:33:49;;;;;;;15.27;6.23;;;9.90;84.10;;;;;;5042714;28;20053;-76
2023/12/17 07:36:16;;;;;;;10.93;5.05;;;9.90;84.10;;;;;;5043879;28;20347;-75
2023/12/17 07:38:43;;;;;;;13.85;6.35;;;9.80;84.00;;;;;;5041052;28;20495;-76
2023/12/17 07:41:10;;;;;;;13.27;5.90;;;9.80;84.10;;;;;;5042628;28;20501;-76
2023/12/17 07:43:37;;;;;;;14.77;6.50;;;9.90;84.00;;;;;;5044665;28;20970;-76
2023/12/17 07:46:04;;;;;;;10.80;5.60;;;9.90;83.80;;;;;;5043277;28;20050;-76
2023/12/17 07:48:31;;;;;;;13.73;5.57;;;9.80;83.90;;;;;;5034979;28;20279;-76
2023/12/17 07:51:01;;;;;;;10.93;5.00;;;9.80;84.10;;;;;;5032284;28;20050;-76
2023/12/17 07:53:28;;;;;;;12.15;5.72;;;9.80;84.10;;;;;;5034305;28;20554;-76
2023/12/17 07:55:57;;;;;;;13.88;6.85;;;9.80;84.10;;;;;;5038041;28;20556;-76
2023/12/17 07:58:25;;;;;;;11.53;4.90;;;9.80;84.30;;;;;;5045379;28;20164;-76
2023/12/17 08:00:53;;;;;;;14.02;7.13;;;9.80;84.00;;;;;;5057475;28;20261;-76
2023/12/17 08:03:23;;;;;;;10.40;4.45;;;9.90;83.90;;;;;;5046347;28;20056;-76
2023/12/17 08:05:50;;;;;;;12.40;5.40;;;9.80;83.80;;;;;;5037311;28;20611;-76
2023/12/17 08:08:18;;;;;;;14.40;6.40;;;9.80;83.70;;;;;;5040621;28;20081;-75
2023/12/17 08:10:45;;;;;;;13.80;6.83;;;9.80;83.90;;;;;;5052897;28;20062;-75
2023/12/17 08:13:13;;;;;;;14.07;5.63;;;9.80;83.90;;;;;;5051855;28;21076;-75
2023/12/17 08:15:39;;;;;;;14.57;6.50;;;9.80;83.90;;;;;;5040089;28;20046;-75
2023/12/17 08:18:07;;;;;;;11.43;4.93;;;9.70;84.10;;;;;;5038300;28;20053;-75
2023/12/17 08:20:34;;;;;;;16.02;7.47;;;9.70;84.20;;;;;;5041801;28;20056;-76
2023/12/17 08:23:01;;;;;;;12.37;6.30;;;9.70;84.00;;;;;;5041324;28;20466;-76
2023/12/17 08:25:30;;;;;;;14.77;6.05;;;9.70;84.10;;;;;;5042598;28;20261;-76
2023/12/17 08:27:57;;;;;;;11.55;6.00;;;9.70;84.30;;;;;;5043507;28;20585;-76
2023/12/17 08:30:25;;;;;;;12.63;6.65;;;9.70;84.20;;;;;;5043447;28;20080;-75
2023/12/17 08:32:52;;;;;;;13.20;6.70;;;9.70;84.20;;;;;;5045625;28;20489;-75
2023/12/17 08:35:19;;;;;;;13.00;7.20;;;9.70;84.30;;;;;;5046773;28;20521;-76
2023/12/17 08:37:46;;;;;;;14.85;5.85;;;9.70;84.20;;;;;;5042219;28;20344;-76
2023/12/17 08:40:14;;;;;;;14.70;7.20;;;9.70;84.30;;;;;;5045045;28;20342;-76
2023/12/17 08:42:42;;;;;;;15.82;7.68;;;9.70;84.50;;;;;;5043796;28;20049;-76
2023/12/17 08:45:10;;;;;;;14.07;7.07;;;9.70;84.70;;;;;;5044368;28;20053;-75
2023/12/17 08:47:37;;;;;;;17.07;7.73;;;9.70;84.70;;;;;;5043585;28;20115;-76
2023/12/17 08:50:05;;;;;;;15.77;7.32;;;9.70;84.70;;;;;;5044274;28;20255;-76
2023/12/17 08:52:33;;;;;;;16.83;7.28;;;9.70;84.70;;;;;;5031990;28;20052;-75
2023/12/17 08:55:00;;;;;;;16.95;8.18;;;9.70;85.00;;;;;;5025752;28;20872;-76
2023/12/17 08:57:27;;;;;;;15.93;7.55;;;9.70;85.20;;;;;;5024951;28;20108;-75
2023/12/17 08:59:55;;;;;;;19.83;9.00;;;9.70;85.20;;;;;;5034807;28;20057;-77
2023/12/17 09:02:23;;;;;;;20.38;9.13;;;9.70;85.30;;;;;;5038200;28;20272;-74
2023/12/17 09:04:51;;;;;;;20.02;9.43;;;9.70;85.50;;;;;;5049253;28;20057;-75
2023/12/17 09:07:18;;;;;;;18.58;8.82;;;9.80;85.70;;;;;;5044443;28;20072;-75
2023/12/17 09:09:45;;;;;;;18.05;6.93;;;9.80;85.80;;;;;;5044799;28;20890;-75
2023/12/17 09:12:12;;;;;;;17.90;6.80;;;9.80;85.90;;;;;;5056044;28;20052;-74
2023/12/17 09:14:39;;;;;;;12.98;5.57;;;9.80;86.00;;;;;;5048879;28;20261;-74
2023/12/17 09:17:08;;;;;;;19.17;8.23;;;9.80;86.20;;;;;;5046980;28;20060;-75
2023/12/17 09:19:35;;;;;;;21.08;9.55;;;9.80;86.30;;;;;;5055273;28;20192;-75
2023/12/17 09:22:02;;;;;;;19.95;8.80;;;9.80;86.40;;;;;;5041660;28;20046;-75
2023/12/17 09:24:29;;;;;;;20.97;9.57;;;9.80;86.40;;;;;;5045673;28;20056;-74
2023/12/17 09:26:56;;;;;;;19.10;8.45;;;9.80;86.40;;;;;;5050349;28;20268;-74
2023/12/17 09:29:23;;;;;;;16.17;7.22;;;9.80;86.50;;;;;;5046321;28;20050;-74
2023/12/17 09:31:50;;;;;;;22.65;9.90;;;9.80;86.70;;;;;;5056958;28;20056;-75
2023/12/17 09:34:19;;;;;;;18.88;8.43;;;9.80;86.70;;;;;;5051983;28;20800;-75
2023/12/17 09:36:46;;;;;;;20.47;8.57;;;9.90;86.60;;;;;;5050812;28;22319;-75
2023/12/17 09:39:14;;;;;;;22.10;10.73;;;9.90;86.60;;;;;;5053772;28;20304;-75
2023/12/17 09:41:41;;;;;;;21.48;8.70;;;9.90;86.40;;;;;;5044815;28;20140;-75
2023/12/17 09:44:09;;;;;;;21.25;11.48;;;9.80;86.30;;;;;;5046409;28;20052;-76
2023/12/17 09:46:36;;;;;;;17.90;8.13;;;9.80;86.50;;;;;;5045708;28;20105;-74
2023/12/17 09:49:03;;;;;;;23.93;10.07;;;9.80;86.40;;;;;;5057042;28;20059;-74
2023/12/17 09:51:37;;;;;;;24.08;9.57;;;9.80;86.30;;;;;;5055224;28;20344;-74
2023/12/17 09:54:05;;;;;;;21.42;10.50;;;9.80;86.40;;;;;;5030131;28;20052;-74
2023/12/17 09:56:32;;;;;;;25.15;10.70;;;9.80;86.50;;;;;;5055908;28;20354;-74
2023/12/17 09:58:59;;;;;;;26.13;10.95;;;9.80;86.40;;;;;;5052565;28;20049;-74
2023/12/17 10:01:27;;;;;;;25.67;12.30;;;9.80;86.40;;;;;;5044180;28;20053;-75
2023/12/17 10:03:54;;;;;;;24.58;10.85;;;9.80;86.40;;;;;;5054934;28;20279;-75
2023/12/17 10:06:21;;;;;;;22.52;9.90;;;9.80;86.20;;;;;;5044244;28;20060;-77
2023/12/17 10:08:49;;;;;;;25.05;10.15;;;9.70;86.20;;;;;;5048260;28;20049;-76
2023/12/17 10:11:17;;;;;;;24.92;10.02;;;9.70;86.30;;;;;;5068856;28;20053;-76
2023/12/17 10:13:44;;;;;;;28.57;12.10;;;9.70;86.20;;;;;;5055051;28;20045;-75
2023/12/17 10:16:11;;;;;;;25.25;11.38;;;9.70;86.10;;;;;;5058083;28;20642;-76
2023/12/17 10:18:38;;;;;;;24.27;8.98;;;9.70;86.30;;;;;;5045248;28;20052;-77
2023/12/17 10:21:08;;;;;;;24.10;10.80;;;9.70;86.20;;;;;;5044807;28;20492;-77
2023/12/17 10:23:49;;;;;;;23.30;10.32;;;9.70;86.10;;;;;;5048215;28;20105;-76
2023/12/17 10:26:16;;;;;;;24.13;10.30;;;9.70;86.00;;;;;;5048234;28;20053;-77
2023/12/17 10:28:46;;;;;;;22.67;10.63;;;9.70;86.00;;;;;;5045627;28;20276;-77
2023/12/17 10:31:16;;;;;;;22.23;11.35;;;9.70;85.90;;;;;;5047030;28;20043;-77
2023/12/17 10:33:51;;;;;;;20.23;10.05;;;9.70;85.90;;;;;;5040569;28;20053;-77
2023/12/17 10:36:19;;;;;;;18.67;7.28;;;9.70;85.80;;;;;;5044527;28;20486;-77
2023/12/17 10:38:48;;;;;;;20.27;8.37;;;9.80;85.60;;;;;;5045017;28;20077;-77
2023/12/17 10:41:17;;;;;;;20.20;9.02;;;9.80;85.50;;;;;;5045925;28;20299;-77
2023/12/17 10:43:45;;;;;;;18.23;8.52;;;9.80;85.70;;;;;;5046340;28;20054;-77
2023/12/17 10:46:17;;;;;;;23.17;9.02;;;9.70;85.70;;;;;;5044034;28;20053;-76
2023/12/17 10:48:45;;;;;;;20.30;8.52;;;9.80;85.70;;;;;;5048219;28;20053;-76
2023/12/17 10:51:12;;;;;;;18.30;8.30;;;9.70;85.70;;;;;;5047037;28;20053;-78
2023/12/17 10:53:39;;;;;;;16.60;8.25;;;9.70;85.80;;;;;;5044019;28;20257;-76
2023/12/17 10:56:09;;;;;;;13.82;6.72;;;9.70;85.80;;;;;;5044918;28;20526;-77
2023/12/17 10:58:37;;;;;;;19.40;9.30;;;9.70;85.80;;;;;;5045322;28;20050;-76
2023/12/17 11:01:05;;;;;;;20.92;9.75;;;9.70;85.60;;;;;;5046156;28;20062;-76
2023/12/17 11:03:33;;;;;;;16.70;8.07;;;9.70;85.50;;;;;;5027320;28;20092;-76
2023/12/17 11:06:01;;;;;;;17.38;8.40;;;9.70;85.30;;;;;;5047724;28;21247;-76
2023/12/17 11:08:28;;;;;;;17.45;7.70;;;9.70;85.50;;;;;;5044943;28;20115;-77
2023/12/17 11:10:57;;;;;;;16.33;7.28;;;9.70;85.40;;;;;;5047540;28;20057;-76
2023/12/17 11:13:26;;;;;;;16.98;7.93;;;9.70;85.50;;;;;;5047818;28;21000;-76
2023/12/17 11:15:53;;;;;;;15.87;8.40;;;9.70;85.50;;;;;;5046535;28;20061;-76
2023/12/17 11:18:23;;;;;;;13.35;6.75;;;9.70;85.60;;;;;;5047744;28;20284;-77
2023/12/17 11:20:52;;;;;;;15.82;7.10;;;9.70;85.40;;;;;;5047154;28;20053;-77
2023/12/17 11:23:19;;;;;;;14.60;5.70;;;9.70;85.30;;;;;;5046653;28;20057;-77
2023/12/17 11:25:47;;;;;;;15.98;7.82;;;9.70;85.10;;;;;;5044604;28;20056;-77
2023/12/17 11:28:24;;;;;;;13.43;6.13;;;9.70;85.00;;;;;;5062267;28;20050;-77
2023/12/17 11:30:53;;;;;;;16.38;6.90;;;9.70;85.30;;;;;;5035028;28;20245;-78
2023/12/17 11:33:20;;;;;;;17.30;8.90;;;9.70;85.20;;;;;;5043764;28;20515;-76
2023/12/17 11:35:48;;;;;;;16.30;8.48;;;9.70;85.30;;;;;;5045487;28;20056;-76
2023/12/17 11:38:16;;;;;;;16.02;8.98;;;9.60;85.40;;;;;;5042448;28;20049;-76
2023/12/17 11:40:43;;;;;;;18.43;9.23;;;9.70;85.10;;;;;;5044316;28;20061;-77
2023/12/17 11:43:10;;;;;;;17.55;9.20;;;9.70;84.80;;;;;;5042363;28;20275;-76
2023/12/17 11:45:41;;;;;;;20.20;8.82;;;9.60;84.70;;;;;;5035556;28;20068;-77
2023/12/17 11:48:11;;;;;;;20.27;10.00;;;9.70;84.60;;;;;;5046526;28;20136;-77
2023/12/17 11:50:43;;;;;;;18.70;10.35;;;9.60;84.80;;;;;;5048327;28;20077;-77
2023/12/17 11:53:11;;;;;;;23.57;10.97;;;9.70;84.60;;;;;;5059021;28;20057;-77
2023/12/17 11:55:43;;;;;;;22.38;11.32;;;9.70;84.50;;;;;;5046445;28;20273;-77
2023/12/17 11:58:10;;;;;;;23.48;11.02;;;9.70;84.60;;;;;;5028319;28;20054;-77
2023/12/17 12:00:37;;;;;;;26.20;12.77;;;9.70;84.40;;;;;;5044825;28;20309;-77
2023/12/17 12:06:11;;;;;;;27.20;12.10;;;9.70;84.00;;;;;;5059160;28;20064;-75
2023/12/17 12:08:40;;;;;;;25.35;11.77;;;9.60;84.10;;;;;;5043552;28;20382;-76
2023/12/17 12:11:08;;;;;;;29.17;12.95;;;9.60;84.10;;;;;;5050138;28;20061;-76
2023/12/17 12:13:37;;;;;;;27.65;12.32;;;9.60;84.20;;;;;;5029487;28;20049;-76
2023/12/17 12:16:06;;;;;;;26.48;12.43;;;9.60;84.20;;;;;;5043207;28;20057;-76
2023/12/17 12:18:35;;;;;;;25.37;11.63;;;9.60;84.10;;;;;;5044226;28;20049;-75
2023/12/17 12:21:02;;;;;;;24.83;11.27;;;9.50;83.90;;;;;;5046242;28;20620;-76
2023/12/17 12:23:29;;;;;;;26.25;12.35;;;9.50;83.80;;;;;;5044944;28;20599;-76
2023/12/17 12:26:00;;;;;;;24.67;10.32;;;9.50;83.80;;;;;;5045680;28;20136;-76
2023/12/17 12:28:29;;;;;;;28.85;13.63;;;9.50;84.00;;;;;;5045085;28;20160;-76
2023/12/17 12:31:08;;;;;;;26.40;12.53;;;9.40;84.40;;;;;;5059949;28;20058;-75
2023/12/17 12:33:37;;;;;;;26.75;11.07;;;9.50;84.30;;;;;;5033633;28;20280;-77
2023/12/17 12:36:07;;;;;;;25.65;12.38;;;9.40;84.50;;;;;;5053701;28;20499;-76
2023/12/17 12:38:34;;;;;;;23.48;10.00;;;9.50;84.60;;;;;;5045523;28;20069;-76
2023/12/17 12:41:10;;;;;;;27.73;12.93;;;9.50;84.40;;;;;;5047356;28;20057;-77
2023/12/17 12:43:39;;;;;;;24.87;11.87;;;9.50;84.20;;;;;;5050408;28;20127;-76
2023/12/17 12:46:07;;;;;;;24.58;11.75;;;9.50;83.90;;;;;;5049839;28;20339;-76
2023/12/17 12:48:36;;;;;;;23.88;11.30;;;9.60;83.30;;;;;;5053162;28;20519;-77